Haiyang, China
Current Conditions -  °F | °C
As of 10:00 PM on Saturday 22 Nov 2014 (Local Time) from ZSQD Reporting Station
Smoke Smoke  
Wind Chill: 50°   Ceiling: Unl
Heat Index: 50°   Visibility: 2.5mi
Dew Point: 34°   Wind: 2mph
Humidity: 54%   Direction: NA
Pressure: 30.3"   Gusts: NA
Location:  36.77°N, 121.17°E
Report Text: ZSQD 221400Z VRB01MPS 4000 FU NSC 10/01 Q1026 NOSIG
Loading
Personal Weather Stations






























Interactive Weather Map New forecast layout! Learn more

10-Day Weather Forecast

Advertisements
Track Severe Weather on mobile